Time;durP1;ratioP1;P1;durP2;ratioP2;P2;SDS_P1;SDS_P2;PMS_P1;PMS_P2;Temp;Humidity;BMP_temperature;BMP_pressure;BME280_temperature;BME280_humidity;BME280_pressure;Samples;Min_cycle;Max_cycle;Signal;HPM_P1;HPM_P2
2022/03/24 00:02:22;;;;;;;36.13;20.87;;;;;;;12.97;33.76;98513.97;5111361;28;20193;-70
2022/03/24 00:04:48;;;;;;;35.13;21.10;;;;;;;12.97;33.83;98519.22;5111458;28;20192;-70
2022/03/24 00:07:13;;;;;;;34.30;19.80;;;;;;;12.96;33.87;98511.44;5110964;28;20272;-71
2022/03/24 00:09:39;;;;;;;28.53;21.10;;;;;;;12.94;34.26;98508.97;5110775;28;20609;-72
2022/03/24 00:12:06;;;;;;;30.70;20.07;;;;;;;12.94;33.93;98503.69;5094820;28;20258;-71
2022/03/24 00:14:32;;;;;;;30.33;18.73;;;;;;;12.92;33.95;98508.25;5091905;28;20276;-72
2022/03/24 00:16:57;;;;;;;30.07;20.20;;;;;;;12.89;33.95;98511.16;5110885;28;20572;-71
2022/03/24 00:19:23;;;;;;;32.60;19.80;;;;;;;12.79;34.04;98508.50;5075948;28;20918;-71
2022/03/24 00:21:49;;;;;;;30.10;19.70;;;;;;;12.67;34.78;98507.78;5111745;28;20193;-71
2022/03/24 00:24:15;;;;;;;33.37;20.53;;;;;;;12.64;34.59;98505.41;5110812;28;20207;-71
2022/03/24 00:26:40;;;;;;;29.97;20.77;;;;;;;12.63;34.64;98508.19;5111276;28;20419;-70
2022/03/24 00:29:08;;;;;;;32.00;19.67;;;;;;;12.60;34.93;98504.03;5110807;28;20177;-71
2022/03/24 00:31:33;;;;;;;27.27;20.23;;;;;;;12.55;34.89;98507.03;5110925;28;20350;-70
2022/03/24 00:33:59;;;;;;;35.10;20.77;;;;;;;12.54;34.81;98504.56;5110663;28;20928;-71
2022/03/24 00:36:26;;;;;;;37.53;21.50;;;;;;;12.49;34.91;98504.09;5113263;28;20340;-71
2022/03/24 00:38:55;;;;;;;33.03;20.57;;;;;;;12.43;34.73;98498.44;5114010;28;20942;-71
2022/03/24 00:41:21;;;;;;;31.73;19.17;;;;;;;12.42;34.82;98499.38;5114871;28;20517;-71
2022/03/24 00:43:48;;;;;;;34.83;21.10;;;;;;;12.36;35.00;98499.91;5114652;28;20803;-70
2022/03/24 00:46:22;;;;;;;32.03;20.23;;;;;;;12.31;35.17;98504.75;5114875;28;20938;-72
2022/03/24 00:48:52;;;;;;;29.57;20.07;;;;;;;12.29;35.53;98493.53;5107169;28;20410;-71
2022/03/24 00:51:18;;;;;;;32.10;20.97;;;;;;;12.24;35.52;98491.28;5115123;27;20534;-70
2022/03/24 00:53:44;;;;;;;31.00;20.40;;;;;;;12.19;35.46;98488.22;5122229;27;20995;-72
2022/03/24 00:56:10;;;;;;;29.43;20.50;;;;;;;12.17;35.81;98492.75;5114570;28;20426;-70
2022/03/24 00:58:36;;;;;;;30.87;19.20;;;;;;;12.11;35.67;98480.16;5114355;28;20833;-71
2022/03/24 01:01:04;;;;;;;31.33;19.20;;;;;;;12.05;35.93;98478.88;5114504;28;20439;-72
2022/03/24 01:03:30;;;;;;;27.43;19.07;;;;;;;12.03;35.89;98482.63;5122515;27;20510;-71
2022/03/24 01:05:56;;;;;;;31.80;20.60;;;;;;;12.02;36.03;98487.03;5114416;28;20518;-72
2022/03/24 01:08:22;;;;;;;33.73;19.27;;;;;;;11.95;36.05;98491.13;5113877;28;20197;-70
2022/03/24 01:10:48;;;;;;;29.07;20.30;;;;;;;11.97;35.95;98476.88;5114000;28;20466;-70
2022/03/24 01:13:15;;;;;;;28.27;19.40;;;;;;;11.95;36.03;98485.88;5114378;28;20506;-70
2022/03/24 01:15:44;;;;;;;28.50;19.97;;;;;;;11.93;36.09;98474.66;5105632;28;20509;-70
2022/03/24 01:18:10;;;;;;;30.07;19.73;;;;;;;11.90;35.87;98477.53;5114100;28;20731;-70
2022/03/24 01:20:36;;;;;;;30.23;19.40;;;;;;;11.84;36.14;98471.00;5113689;28;20514;-71
2022/03/24 01:23:01;;;;;;;30.70;20.50;;;;;;;11.81;36.32;98469.47;5107044;27;20182;-70
2022/03/24 01:25:27;;;;;;;29.70;19.73;;;;;;;11.75;36.17;98464.72;5111577;28;20208;-70
2022/03/24 01:27:53;;;;;;;36.33;19.57;;;;;;;11.74;36.17;98468.31;5114243;28;20177;-71
2022/03/24 01:30:19;;;;;;;29.60;19.30;;;;;;;11.70;36.12;98464.28;5113596;28;20596;-70
2022/03/24 01:32:46;;;;;;;28.90;18.80;;;;;;;11.71;36.08;98465.97;5113650;28;20417;-70
2022/03/24 01:35:12;;;;;;;29.33;19.77;;;;;;;11.76;35.93;98465.56;5095705;28;20433;-71
2022/03/24 01:37:38;;;;;;;34.30;19.90;;;;;;;11.80;35.85;98467.81;5122134;27;20419;-71
2022/03/24 01:40:05;;;;;;;35.20;19.23;;;;;;;11.78;36.11;98464.47;5113171;27;20427;-71
2022/03/24 01:42:34;;;;;;;26.20;19.00;;;;;;;11.71;36.55;98468.59;5113335;28;20454;-71
2022/03/24 01:44:59;;;;;;;29.20;19.13;;;;;;;11.62;36.24;98454.44;5113772;28;20961;-71
2022/03/24 01:47:25;;;;;;;30.60;20.60;;;;;;;11.63;36.37;98460.50;5112756;28;20450;-72
2022/03/24 01:49:50;;;;;;;27.70;20.50;;;;;;;11.65;36.32;98458.56;5113224;28;20268;-71
2022/03/24 01:52:18;;;;;;;31.80;20.73;;;;;;;11.63;36.28;98452.63;5112698;27;20270;-72
2022/03/24 01:54:45;;;;;;;30.70;18.83;;;;;;;11.63;36.08;98460.50;5113834;28;20271;-70
2022/03/24 01:57:12;;;;;;;31.20;20.93;;;;;;;11.59;36.23;98459.09;5091664;28;20511;-71
2022/03/24 01:59:38;;;;;;;33.27;19.60;;;;;;;11.63;36.39;98457.88;5097275;27;20443;-71
2022/03/24 02:02:05;;;;;;;27.80;19.37;;;;;;;11.66;36.20;98455.00;5118574;27;20453;-71
2022/03/24 02:04:35;;;;;;;24.73;17.67;;;;;;;11.69;36.10;98462.63;5095445;28;20430;-71
2022/03/24 02:07:02;;;;;;;27.50;18.77;;;;;;;11.66;36.28;98455.00;5113168;28;20833;-73
2022/03/24 02:09:27;;;;;;;29.20;20.13;;;;;;;11.62;36.26;98458.81;5112969;28;20447;-71
2022/03/24 02:11:53;;;;;;;32.17;19.30;;;;;;;11.57;36.43;98463.66;5113481;28;20462;-71
2022/03/24 02:14:19;;;;;;;28.73;19.77;;;;;;;11.46;36.23;98452.25;5112895;28;20184;-73
2022/03/24 02:16:47;;;;;;;29.47;19.40;;;;;;;11.42;36.65;98453.47;5121556;27;20840;-72
2022/03/24 02:19:21;;;;;;;30.83;19.90;;;;;;;11.37;36.71;98453.00;5095477;28;20185;-71
2022/03/24 02:21:48;;;;;;;29.60;19.10;;;;;;;11.43;37.02;98457.75;5112365;27;20502;-71
2022/03/24 02:24:15;;;;;;;29.30;19.67;;;;;;;11.43;36.87;98451.66;5117939;27;20419;-72
2022/03/24 02:26:42;;;;;;;30.10;20.47;;;;;;;11.44;36.89;98456.78;5101551;28;20400;-72
2022/03/24 02:29:10;;;;;;;28.83;19.27;;;;;;;11.47;36.52;98455.69;5113029;28;20423;-72
2022/03/24 02:31:38;;;;;;;30.00;20.37;;;;;;;11.45;36.61;98442.72;5113819;28;20479;-71
2022/03/24 02:36:52;;;;;;;29.20;19.80;;;;;;;11.46;36.67;98447.00;5107751;28;20415;-71
2022/03/24 02:39:19;;;;;;;32.50;19.90;;;;;;;11.42;37.00;98442.94;5115984;28;20445;-72
2022/03/24 02:41:51;;;;;;;31.77;20.67;;;;;;;11.33;36.80;98441.09;5113784;27;20857;-70
2022/03/24 02:44:18;;;;;;;26.83;19.47;;;;;;;11.26;37.08;98448.66;5112658;28;20444;-71
2022/03/24 02:46:47;;;;;;;31.30;20.30;;;;;;;11.24;37.23;98449.72;5112626;28;20446;-71
2022/03/24 02:49:13;;;;;;;37.80;21.00;;;;;;;11.19;37.34;98448.31;5112417;28;20423;-71
2022/03/24 02:51:39;;;;;;;36.47;19.40;;;;;;;11.21;37.47;98445.56;5112550;27;20462;-72
2022/03/24 02:54:05;;;;;;;28.70;19.90;;;;;;;11.20;37.54;98447.38;5112209;27;21086;-70
2022/03/24 02:56:34;;;;;;;27.27;19.23;;;;;;;11.16;37.92;98450.34;5112281;28;20181;-71
2022/03/24 02:59:00;;;;;;;28.03;19.13;;;;;;;11.09;37.71;98447.38;5096430;28;20255;-72
2022/03/24 03:01:25;;;;;;;29.37;19.60;;;;;;;11.07;37.47;98449.31;5109596;28;20553;-70
2022/03/24 03:03:55;;;;;;;28.20;18.83;;;;;;;10.97;37.36;98453.63;5097681;28;20638;-70
2022/03/24 03:06:21;;;;;;;33.23;20.17;;;;;;;10.98;37.95;98456.13;5109181;28;20177;-70
2022/03/24 03:08:49;;;;;;;35.40;19.57;;;;;;;10.97;37.47;98451.00;5111391;28;20944;-70
2022/03/24 03:11:20;;;;;;;29.30;19.23;;;;;;;10.94;37.65;98456.50;5111989;28;20211;-71
2022/03/24 03:13:47;;;;;;;36.40;19.90;;;;;;;10.87;37.99;98453.56;5104684;28;20407;-69
2022/03/24 03:16:13;;;;;;;27.00;19.77;;;;;;;10.74;37.95;98466.81;5120192;27;20414;-70
2022/03/24 03:18:41;;;;;;;31.17;19.23;;;;;;;10.75;38.20;98450.13;5123269;27;20425;-70
2022/03/24 03:21:08;;;;;;;34.30;20.10;;;;;;;10.74;38.07;98446.69;5099572;27;20644;-70
2022/03/24 03:23:37;;;;;;;31.33;20.63;;;;;;;10.71;38.37;98460.03;5110925;28;20447;-72
2022/03/24 03:26:03;;;;;;;27.23;19.37;;;;;;;10.73;38.40;98452.03;5112221;28;20458;-71
2022/03/24 03:28:28;;;;;;;30.17;21.07;;;;;;;10.75;38.31;98453.59;5111748;28;20472;-70
2022/03/24 03:30:53;;;;;;;31.70;20.57;;;;;;;10.71;38.20;98461.81;5111496;28;20212;-70
2022/03/24 03:33:19;;;;;;;31.40;20.10;;;;;;;10.72;38.46;98452.97;5112233;28;20177;-70
2022/03/24 03:35:44;;;;;;;36.13;20.13;;;;;;;10.65;38.69;98460.50;5105252;27;20205;-71
2022/03/24 03:38:10;;;;;;;29.93;20.50;;;;;;;10.61;38.49;98459.09;5107615;28;20279;-72
2022/03/24 03:40:36;;;;;;;34.97;21.23;;;;;;;10.59;38.28;98455.75;5111124;28;20238;-71
2022/03/24 03:43:02;;;;;;;29.00;19.70;;;;;;;10.60;38.26;98460.03;5111516;28;20430;-71
2022/03/24 03:45:27;;;;;;;32.23;20.80;;;;;;;10.58;38.62;98456.72;5119678;27;20668;-71
2022/03/24 03:47:53;;;;;;;31.90;20.40;;;;;;;10.53;38.60;98462.31;5113092;27;20186;-71
2022/03/24 03:50:18;;;;;;;29.90;19.70;;;;;;;10.51;38.68;98460.78;5116695;27;20173;-70
2022/03/24 03:52:44;;;;;;;32.47;21.80;;;;;;;10.51;39.01;98461.59;5120006;27;20196;-71
2022/03/24 03:55:10;;;;;;;34.17;20.33;;;;;;;10.47;38.74;98460.16;5097330;28;20727;-70
2022/03/24 03:57:36;;;;;;;34.60;22.53;;;;;;;10.39;38.32;98454.72;5111459;28;20578;-71
2022/03/24 04:00:52;;;;;;;37.10;21.93;;;;;;;10.40;38.94;98456.38;5119604;27;20177;-70
2022/03/24 04:02:49;;;;;;;31.83;19.47;;;;;;;10.34;38.88;98451.56;5117623;27;20429;-71
2022/03/24 04:05:15;;;;;;;35.43;20.40;;;;;;;10.30;39.11;98459.69;5123302;28;21137;-70
2022/03/24 04:07:40;;;;;;;30.53;20.60;;;;;;;10.30;39.56;98461.47;5110995;28;20245;-71
2022/03/24 04:10:12;;;;;;;31.80;19.87;;;;;;;10.28;39.41;98464.22;5109074;27;20649;-71
2022/03/24 04:12:37;;;;;;;30.30;19.93;;;;;;;10.21;39.07;98463.00;5104459;27;20209;-71
2022/03/24 04:15:03;;;;;;;32.90;21.53;;;;;;;10.26;39.05;98466.13;5116698;27;20423;-70
2022/03/24 04:17:28;;;;;;;31.20;20.60;;;;;;;10.23;39.11;98468.16;5105755;28;20177;-71
2022/03/24 04:19:54;;;;;;;33.30;21.80;;;;;;;10.25;39.19;98467.06;5096858;28;20183;-70
2022/03/24 04:22:19;;;;;;;33.47;20.67;;;;;;;10.22;38.86;98467.28;5113938;28;20705;-70
2022/03/24 04:24:45;;;;;;;36.23;21.70;;;;;;;10.11;39.47;98472.53;5110351;28;20178;-72
2022/03/24 04:27:11;;;;;;;35.73;21.70;;;;;;;10.12;39.35;98475.06;5095139;28;20177;-70
2022/03/24 04:29:37;;;;;;;31.10;20.40;;;;;;;10.08;39.49;98473.63;5095334;28;20208;-71
2022/03/24 04:32:03;;;;;;;34.10;21.40;;;;;;;10.12;39.19;98469.81;5098866;28;20906;-71
2022/03/24 04:34:28;;;;;;;31.87;20.17;;;;;;;10.15;39.30;98480.03;5113563;28;20226;-71
2022/03/24 04:36:54;;;;;;;31.40;20.80;;;;;;;10.20;39.05;98466.59;5093868;28;20195;-70
2022/03/24 04:39:19;;;;;;;29.70;20.07;;;;;;;10.18;39.29;98468.50;5094257;28;20194;-71
2022/03/24 04:41:45;;;;;;;29.50;19.90;;;;;;;10.19;39.44;98470.19;5098965;27;20604;-72
2022/03/24 04:44:10;;;;;;;32.77;20.20;;;;;;;10.18;39.25;98471.13;5111403;27;20184;-72
2022/03/24 04:46:36;;;;;;;31.03;20.40;;;;;;;10.15;39.34;98480.03;5113850;28;20781;-71
2022/03/24 04:49:02;;;;;;;35.00;20.53;;;;;;;10.09;39.13;98474.44;5115335;27;20239;-70
2022/03/24 04:51:27;;;;;;;31.77;20.27;;;;;;;10.08;39.25;98478.03;5111947;28;20205;-70
2022/03/24 04:53:54;;;;;;;32.07;21.13;;;;;;;10.08;39.57;98478.03;5119642;27;20478;-72
2022/03/24 04:56:19;;;;;;;29.17;19.90;;;;;;;10.08;39.51;98478.03;5116920;27;20704;-71
2022/03/24 04:58:45;;;;;;;37.73;21.03;;;;;;;10.08;39.29;98478.03;5113765;28;20501;-70
2022/03/24 05:01:13;;;;;;;31.47;21.10;;;;;;;10.10;39.50;98483.97;5129280;27;20189;-69
2022/03/24 05:03:42;;;;;;;31.67;20.97;;;;;;;10.10;39.33;98478.72;5114145;27;20545;-70
2022/03/24 05:06:08;;;;;;;34.50;20.80;;;;;;;10.04;39.24;98477.41;5114486;28;20457;-70
2022/03/24 05:08:33;;;;;;;31.17;20.33;;;;;;;10.02;39.48;98475.88;5113960;28;20454;-70
2022/03/24 05:10:59;;;;;;;36.47;19.50;;;;;;;9.93;39.61;98477.41;5119647;27;20887;-71
2022/03/24 05:13:24;;;;;;;34.47;21.23;;;;;;;9.90;39.91;98488.09;5123008;27;20193;-71
2022/03/24 05:15:50;;;;;;;33.50;19.83;;;;;;;9.74;39.73;98486.66;5113788;28;20222;-71
2022/03/24 05:18:15;;;;;;;38.87;20.07;;;;;;;9.71;39.81;98486.91;5113858;28;20555;-71
2022/03/24 05:20:41;;;;;;;29.70;19.07;;;;;;;9.63;40.38;98479.63;5122527;27;20173;-73
2022/03/24 05:23:07;;;;;;;35.80;20.43;;;;;;;9.56;40.21;98483.66;5114074;28;20169;-71
2022/03/24 05:25:34;;;;;;;27.97;18.27;;;;;;;9.62;40.29;98483.19;5129473;27;20743;-73
2022/03/24 05:27:59;;;;;;;31.57;19.50;;;;;;;9.66;40.30;98481.16;5113836;28;20435;-73
2022/03/24 05:30:25;;;;;;;35.50;20.33;;;;;;;9.64;40.15;98478.66;5112887;28;20453;-70
2022/03/24 05:32:50;;;;;;;35.53;21.50;;;;;;;9.63;39.78;98482.22;5113255;28;20258;-70
2022/03/24 05:35:16;;;;;;;35.43;20.40;;;;;;;9.59;40.23;98486.00;5113071;28;20185;-72
2022/03/24 05:37:42;;;;;;;35.83;20.10;;;;;;;9.71;40.00;98481.66;5122277;27;20238;-72
2022/03/24 05:40:09;;;;;;;32.63;19.77;;;;;;;9.73;40.08;98479.75;5113408;28;21002;-71
2022/03/24 05:42:34;;;;;;;30.47;19.73;;;;;;;9.81;40.16;98481.81;5121930;27;20192;-72
2022/03/24 05:45:00;;;;;;;30.20;19.97;;;;;;;9.82;40.18;98488.72;5113598;28;20484;-71
2022/03/24 05:47:25;;;;;;;31.67;20.50;;;;;;;9.86;39.91;98487.50;5121405;27;20180;-72
2022/03/24 05:49:51;;;;;;;31.63;20.63;;;;;;;9.92;40.52;98494.91;5117547;27;20180;-70
2022/03/24 05:52:16;;;;;;;32.60;20.03;;;;;;;9.93;39.88;98486.13;5124888;27;20209;-70
2022/03/24 05:54:42;;;;;;;29.97;19.90;;;;;;;9.93;39.72;98491.34;5113509;28;20223;-71
2022/03/24 05:57:10;;;;;;;32.03;20.13;;;;;;;9.98;39.01;98489.19;5120714;27;20176;-72
2022/03/24 05:59:36;;;;;;;28.40;20.13;;;;;;;9.98;39.91;98489.19;5112483;27;20181;-71
2022/03/24 06:02:01;;;;;;;30.90;21.07;;;;;;;10.17;39.39;98494.81;5121751;27;20456;-71
2022/03/24 06:04:29;;;;;;;31.23;21.17;;;;;;;10.25;39.84;98503.75;5114169;27;20610;-70
2022/03/24 06:06:56;;;;;;;28.53;20.07;;;;;;;10.41;39.53;98502.59;5119323;27;20177;-72
2022/03/24 06:09:22;;;;;;;31.37;20.57;;;;;;;10.49;39.15;98497.59;5113550;27;20927;-71
2022/03/24 06:11:49;;;;;;;32.70;20.10;;;;;;;10.56;39.15;98500.56;5124350;27;20561;-70
2022/03/24 06:14:15;;;;;;;29.40;18.80;;;;;;;10.59;38.95;98495.91;5113611;28;20514;-71
2022/03/24 06:16:41;;;;;;;39.63;20.63;;;;;;;10.72;38.78;98502.78;5112976;28;20542;-72
2022/03/24 06:19:09;;;;;;;32.80;21.03;;;;;;;10.67;38.86;98497.91;5112622;28;20700;-71
2022/03/24 06:21:35;;;;;;;31.23;21.00;;;;;;;10.73;38.63;98499.22;5112220;28;20489;-70
2022/03/24 06:24:01;;;;;;;38.20;21.00;;;;;;;10.79;38.23;98498.75;5117219;27;20449;-72
2022/03/24 06:26:26;;;;;;;41.83;22.73;;;;;;;10.94;37.91;98495.88;5114537;27;20189;-70
2022/03/24 06:28:52;;;;;;;29.33;20.00;;;;;;;10.98;37.80;98499.88;5112311;28;20199;-70
2022/03/24 06:31:19;;;;;;;36.30;20.47;;;;;;;11.03;37.57;98495.13;5121307;27;20212;-70
2022/03/24 06:33:44;;;;;;;34.60;20.43;;;;;;;11.21;37.76;98496.22;5121085;27;20930;-71
2022/03/24 06:36:10;;;;;;;30.13;19.63;;;;;;;11.44;37.12;98492.69;5095763;28;20491;-71
2022/03/24 06:38:38;;;;;;;40.83;21.50;;;;;;;11.51;37.11;98488.63;5111261;28;20228;-71
2022/03/24 06:41:05;;;;;;;31.13;20.67;;;;;;;11.66;37.25;98487.31;5096389;28;20200;-71
2022/03/24 06:43:31;;;;;;;31.20;20.80;;;;;;;11.86;36.30;98495.34;5111051;28;20972;-70
2022/03/24 06:45:57;;;;;;;29.00;20.37;;;;;;;11.90;36.12;98498.53;5112890;28;20458;-70
2022/03/24 06:48:23;;;;;;;33.63;20.00;;;;;;;11.95;36.28;98497.19;5122218;27;20450;-70
2022/03/24 06:50:49;;;;;;;37.33;20.20;;;;;;;12.10;36.91;98489.81;5119508;27;20205;-70
2022/03/24 06:53:15;;;;;;;34.70;20.80;;;;;;;12.25;36.52;98495.59;5112781;27;20181;-70
2022/03/24 06:55:41;;;;;;;41.23;21.30;;;;;;;12.46;36.63;98488.63;5112355;28;20442;-70
2022/03/24 06:58:06;;;;;;;36.97;21.23;;;;;;;12.63;36.03;98497.66;5112219;28;20866;-69
2022/03/24 07:00:32;;;;;;;33.70;20.13;;;;;;;12.80;35.40;98490.91;5111748;28;20192;-70
2022/03/24 07:02:58;;;;;;;32.73;22.23;;;;;;;12.87;35.39;98503.41;5118192;27;20226;-70
2022/03/24 07:05:24;;;;;;;33.20;20.67;;;;;;;12.88;35.12;98493.69;5114654;27;20257;-70
2022/03/24 07:07:50;;;;;;;32.13;21.87;;;;;;;13.14;34.61;98487.91;5112665;28;20427;-69
2022/03/24 07:10:17;;;;;;;37.73;22.00;;;;;;;13.19;34.32;98493.63;5112086;28;20454;-70
2022/03/24 07:12:43;;;;;;;39.33;22.27;;;;;;;13.39;34.53;98497.09;5104111;28;20308;-70
2022/03/24 07:15:10;;;;;;;40.23;22.40;;;;;;;13.51;34.50;98489.91;5113350;28;20453;-70
2022/03/24 07:17:36;;;;;;;38.87;22.80;;;;;;;13.78;34.49;98499.72;5112093;28;20470;-70
2022/03/24 07:20:05;;;;;;;35.00;21.73;;;;;;;13.94;33.85;98499.13;5113783;27;20429;-70
2022/03/24 07:22:34;;;;;;;34.17;23.13;;;;;;;14.08;33.27;98497.03;5121700;27;20446;-70
2022/03/24 07:25:00;;;;;;;37.10;22.27;;;;;;;14.28;33.60;98498.63;5115830;27;21003;-70
2022/03/24 07:27:26;;;;;;;38.13;23.23;;;;;;;14.51;32.62;98494.78;5100048;27;20435;-70
2022/03/24 07:29:52;;;;;;;32.73;22.03;;;;;;;14.67;32.58;98499.41;5118972;27;20841;-70
2022/03/24 07:32:17;;;;;;;33.33;22.70;;;;;;;14.78;32.41;98504.53;5111689;27;20291;-70
2022/03/24 07:34:43;;;;;;;40.33;22.00;;;;;;;14.84;31.43;98497.81;5120341;27;20213;-70
2022/03/24 07:37:08;;;;;;;41.93;22.93;;;;;;;15.07;32.49;98497.41;5112022;28;20222;-70
2022/03/24 07:39:34;;;;;;;42.67;23.67;;;;;;;15.25;32.12;98494.81;5111386;28;20684;-71
2022/03/24 07:41:59;;;;;;;45.83;23.60;;;;;;;15.49;32.27;98491.53;5111562;28;20689;-70
2022/03/24 07:44:25;;;;;;;38.17;24.47;;;;;;;15.71;31.73;98494.66;5110937;28;20184;-70
2022/03/24 07:46:51;;;;;;;41.43;23.53;;;;;;;15.86;31.07;98492.34;5111505;28;20172;-72
2022/03/24 07:49:16;;;;;;;42.90;23.47;;;;;;;15.96;31.12;98493.06;5119953;27;20444;-71
2022/03/24 07:51:43;;;;;;;35.93;23.43;;;;;;;16.08;30.59;98498.91;5111666;28;20216;-71
2022/03/24 07:54:10;;;;;;;43.23;24.50;;;;;;;16.23;30.19;98499.19;5114995;28;20264;-71
2022/03/24 07:56:37;;;;;;;37.43;23.40;;;;;;;16.38;30.39;98494.94;5112281;28;20426;-71
2022/03/24 07:59:04;;;;;;;34.20;22.80;;;;;;;16.55;30.05;98487.94;5112322;28;20419;-71
2022/03/24 08:01:35;;;;;;;35.13;21.37;;;;;;;16.74;29.82;98496.59;5113640;28;20430;-70
2022/03/24 08:04:05;;;;;;;35.83;23.47;;;;;;;16.89;29.75;98491.50;5113568;28;20414;-71
2022/03/24 08:06:31;;;;;;;36.27;22.10;;;;;;;17.13;29.03;98500.53;5113345;28;20422;-71
2022/03/24 08:08:57;;;;;;;32.30;22.63;;;;;;;17.31;28.99;98501.22;5114717;28;20425;-71
2022/03/24 08:11:23;;;;;;;33.13;22.77;;;;;;;17.54;27.84;98491.78;5116972;28;20490;-71
2022/03/24 08:13:53;;;;;;;31.60;22.00;;;;;;;17.79;27.53;98495.25;5116648;28;20507;-70
2022/03/24 08:16:25;;;;;;;37.40;21.90;;;;;;;17.97;26.76;98492.44;5111425;28;20173;-71
2022/03/24 08:18:53;;;;;;;37.40;23.50;;;;;;;18.22;26.67;98495.88;5110658;28;20530;-70
2022/03/24 08:21:19;;;;;;;30.43;21.93;;;;;;;18.55;26.60;98503.72;5111397;28;20443;-70
2022/03/24 08:23:44;;;;;;;37.03;21.70;;;;;;;18.80;25.73;98500.97;5111390;28;20588;-71
2022/03/24 08:26:10;;;;;;;42.33;21.70;;;;;;;18.97;25.50;98498.25;5094194;28;20602;-71
2022/03/24 08:28:36;;;;;;;37.00;23.13;;;;;;;19.12;26.08;98495.66;5091598;28;20668;-71
2022/03/24 08:31:01;;;;;;;34.67;22.50;;;;;;;19.41;25.94;98492.31;5111249;28;20215;-71
2022/03/24 08:33:28;;;;;;;34.47;22.87;;;;;;;19.64;24.90;98494.94;5110623;28;20469;-72
2022/03/24 08:35:53;;;;;;;33.10;22.87;;;;;;;19.91;25.39;98499.91;5110809;28;20579;-72
2022/03/24 08:38:19;;;;;;;34.20;21.57;;;;;;;20.12;24.76;98495.72;5110795;28;20450;-70
2022/03/24 08:40:44;;;;;;;35.07;23.83;;;;;;;20.24;24.19;98489.75;5111505;28;20177;-70
2022/03/24 08:43:10;;;;;;;34.00;22.10;;;;;;;20.34;23.77;98494.78;5094914;28;20174;-70
2022/03/24 08:45:37;;;;;;;36.80;22.67;;;;;;;20.32;23.25;98496.00;5091987;28;20189;-71
2022/03/24 08:48:03;;;;;;;41.30;23.50;;;;;;;20.33;22.92;98498.47;5111484;28;20268;-70
2022/03/24 08:50:29;;;;;;;33.80;22.00;;;;;;;20.24;22.74;98488.94;5092817;28;20473;-70
2022/03/24 08:52:55;;;;;;;31.47;21.67;;;;;;;20.26;22.62;98489.56;5111905;28;20812;-72
2022/03/24 08:55:21;;;;;;;33.37;23.17;;;;;;;20.39;22.77;98497.75;5113530;27;20196;-71
2022/03/24 08:57:47;;;;;;;40.27;22.37;;;;;;;20.42;21.92;98497.34;5114532;28;20427;-70
2022/03/24 09:00:16;;;;;;;27.93;20.63;;;;;;;20.52;21.30;98491.75;5097421;28;20207;-70
2022/03/24 09:02:47;;;;;;;29.30;21.40;;;;;;;20.62;20.64;98487.97;5115208;28;20434;-71
2022/03/24 09:05:13;;;;;;;30.90;22.40;;;;;;;20.83;20.68;98492.56;5097199;28;20769;-71
2022/03/24 09:07:40;;;;;;;31.20;21.17;;;;;;;20.98;20.61;98498.69;5114903;27;20429;-70
2022/03/24 09:10:07;;;;;;;29.80;22.27;;;;;;;21.11;20.86;98497.19;5114507;28;20926;-71
2022/03/24 09:12:34;;;;;;;29.80;21.90;;;;;;;21.10;20.18;98493.72;5095967;28;20470;-72
2022/03/24 09:15:00;;;;;;;32.93;22.60;;;;;;;21.23;20.39;98495.66;5115664;28;20446;-72
2022/03/24 09:17:26;;;;;;;34.80;24.03;;;;;;;21.24;20.49;98500.00;5115085;28;20843;-71
2022/03/24 09:19:51;;;;;;;39.20;23.77;;;;;;;21.14;20.49;98499.47;5114364;28;20794;-71
2022/03/24 09:22:17;;;;;;;35.40;21.93;;;;;;;21.33;20.42;98500.69;5114413;28;20271;-70
2022/03/24 09:24:42;;;;;;;32.73;23.27;;;;;;;21.45;20.59;98491.16;5114721;27;20663;-71
2022/03/24 09:27:08;;;;;;;33.40;22.27;;;;;;;21.62;20.96;98490.91;5114477;28;20222;-70
2022/03/24 09:29:33;;;;;;;33.90;24.00;;;;;;;21.83;20.67;98491.91;5113509;28;20264;-70
2022/03/24 09:31:59;;;;;;;33.93;24.03;;;;;;;21.96;21.22;98499.19;5114556;28;20672;-71
2022/03/24 09:34:25;;;;;;;35.00;22.73;;;;;;;22.34;21.11;98493.47;5114409;28;20199;-71
2022/03/24 09:36:50;;;;;;;32.13;23.00;;;;;;;22.72;21.05;98503.75;5114108;28;20407;-71
2022/03/24 09:39:16;;;;;;;34.10;22.10;;;;;;;22.99;20.09;98496.66;5122025;27;20189;-71
2022/03/24 09:41:46;;;;;;;32.67;22.57;;;;;;;22.99;19.75;98498.50;5114125;28;20192;-71
2022/03/24 09:44:11;;;;;;;30.73;22.43;;;;;;;23.38;19.97;98502.31;5114319;28;20196;-72
2022/03/24 09:46:38;;;;;;;33.40;24.50;;;;;;;23.64;19.51;98498.03;5122162;27;20422;-71
2022/03/24 09:49:03;;;;;;;33.67;22.30;;;;;;;23.85;18.92;98498.81;5097532;28;20653;-71
2022/03/24 09:51:30;;;;;;;33.40;21.47;;;;;;;23.98;18.26;98496.19;5112123;28;20545;-71
2022/03/24 09:53:56;;;;;;;27.90;21.03;;;;;;;24.16;18.42;98492.03;5114361;27;20176;-71
2022/03/24 09:56:21;;;;;;;30.33;21.73;;;;;;;24.31;18.52;98491.78;5113109;28;20419;-70
2022/03/24 09:58:50;;;;;;;30.10;20.77;;;;;;;24.56;18.08;98494.59;5114091;28;20173;-71
2022/03/24 10:01:17;;;;;;;31.30;21.43;;;;;;;24.59;17.38;98488.81;5113558;28;20673;-72
2022/03/24 10:04:06;;;;;;;34.80;22.07;;;;;;;24.22;17.35;98484.00;5105501;28;20418;-71
2022/03/24 10:06:33;;;;;;;34.00;21.43;;;;;;;24.05;17.28;98496.16;5117860;27;20945;-70
2022/03/24 10:08:59;;;;;;;28.40;20.90;;;;;;;24.13;17.02;98479.06;5112171;28;20441;-69
2022/03/24 10:11:26;;;;;;;28.43;21.20;;;;;;;23.81;16.80;98484.22;5094821;28;21221;-70
2022/03/24 10:13:53;;;;;;;26.77;20.63;;;;;;;24.06;16.95;98485.25;5113150;28;20181;-71
2022/03/24 10:16:34;;;;;;;28.93;20.90;;;;;;;24.39;17.76;98483.50;5113095;28;20458;-69
2022/03/24 10:19:14;;;;;;;23.50;19.23;;;;;;;24.60;16.18;98479.72;5113181;28;20411;-71
2022/03/24 10:21:43;;;;;;;26.93;19.37;;;;;;;24.49;16.04;98481.25;5113085;28;20511;-72
2022/03/24 10:24:12;;;;;;;30.03;20.33;;;;;;;24.81;16.36;98480.53;5114430;27;20782;-70
2022/03/24 10:26:48;;;;;;;24.33;18.40;;;;;;;25.06;16.14;98479.75;5112962;28;20423;-71
2022/03/24 10:29:19;;;;;;;28.43;19.57;;;;;;;25.30;16.14;98473.63;5112175;28;20426;-71
2022/03/24 10:31:45;;;;;;;24.80;19.10;;;;;;;25.34;15.46;98483.91;5104960;28;20465;-72
2022/03/24 10:34:11;;;;;;;24.60;19.00;;;;;;;25.55;15.49;98480.06;5112997;27;20431;-70
2022/03/24 10:36:39;;;;;;;21.97;18.23;;;;;;;25.62;14.88;98475.47;5112707;28;20426;-70
2022/03/24 10:39:05;;;;;;;33.10;18.40;;;;;;;25.32;15.04;98475.28;5111789;28;20447;-70
2022/03/24 10:41:35;;;;;;;26.23;19.57;;;;;;;25.37;15.54;98472.75;5112563;27;20439;-70
2022/03/24 10:44:07;;;;;;;25.27;19.13;;;;;;;25.31;15.69;98482.47;5112947;28;20426;-71
2022/03/24 10:46:35;;;;;;;27.67;19.30;;;;;;;25.66;16.26;98473.97;5112151;28;20418;-71
2022/03/24 10:49:25;;;;;;;35.37;20.10;;;;;;;25.77;15.75;98464.41;5112473;28;20468;-69
2022/03/24 10:51:53;;;;;;;25.67;17.87;;;;;;;26.01;14.99;98469.94;5105759;28;20815;-69
2022/03/24 10:54:25;;;;;;;26.10;19.50;;;;;;;26.04;14.96;98469.53;5112594;27;20427;-68
2022/03/24 10:57:06;;;;;;;27.47;18.70;;;;;;;26.21;14.79;98467.09;5112022;28;20422;-69
2022/03/24 10:59:36;;;;;;;23.60;19.27;;;;;;;26.46;14.72;98468.88;5102636;28;20427;-71
2022/03/24 11:02:02;;;;;;;26.07;16.80;;;;;;;26.69;14.54;98470.88;5112370;28;20446;-70
2022/03/24 11:04:27;;;;;;;19.53;15.43;;;;;;;26.64;12.26;98468.88;5111580;28;20419;-70
2022/03/24 11:06:53;;;;;;;16.00;13.73;;;;;;;26.80;12.69;98469.31;5097508;28;20182;-70
2022/03/24 11:09:33;;;;;;;25.20;14.60;;;;;;;26.98;12.49;98468.44;5108655;28;20173;-70
2022/03/24 11:12:28;;;;;;;17.83;12.50;;;;;;;26.88;11.63;98470.84;5120284;28;20458;-71
2022/03/24 11:14:56;;;;;;;24.50;13.83;;;;;;;26.95;11.73;98471.59;5105462;28;20415;-70
2022/03/24 11:17:23;;;;;;;15.87;13.67;;;;;;;26.66;11.41;98465.94;5112177;28;20858;-70
2022/03/24 11:20:04;;;;;;;20.23;13.60;;;;;;;26.14;11.86;98461.78;5111550;28;20498;-71